createdAt,value
2022-11-07T00:01:42.029Z,8.70
2022-11-07T00:04:08.827Z,8.80
2022-11-07T00:06:37.483Z,8.60
2022-11-07T00:09:04.904Z,8.40
2022-11-07T00:11:31.741Z,8.30
2022-11-07T00:13:58.499Z,8.10
2022-11-07T00:16:26.609Z,8.20
2022-11-07T00:18:53.378Z,8.30
2022-11-07T00:21:20.064Z,8.40
2022-11-07T00:23:47.360Z,8.50
2022-11-07T00:26:15.061Z,8.50
2022-11-07T00:28:43.652Z,8.50
2022-11-07T00:31:12.695Z,8.50
2022-11-07T00:33:40.521Z,8.20
2022-11-07T00:36:08.549Z,8.10
2022-11-07T00:38:35.475Z,7.90
2022-11-07T00:41:04.387Z,7.80
2022-11-07T00:43:32.030Z,7.70
2022-11-07T00:46:01.781Z,7.70
2022-11-07T00:48:29.473Z,7.70
2022-11-07T00:50:56.264Z,7.70
2022-11-07T00:53:25.567Z,7.70
2022-11-07T00:55:52.342Z,7.80
2022-11-07T00:58:19.113Z,7.80
2022-11-07T01:00:45.848Z,7.80
2022-11-07T01:03:30.999Z,7.90
2022-11-07T01:06:03.685Z,7.90
2022-11-07T01:08:31.253Z,7.80
2022-11-07T01:10:59.321Z,8.20
2022-11-07T01:13:26.242Z,8.10
2022-11-07T01:15:54.025Z,8.50
2022-11-07T01:18:20.790Z,8.80
2022-11-07T01:20:49.483Z,8.80
2022-11-07T01:23:20.868Z,8.90
2022-11-07T01:25:47.582Z,9.10
2022-11-07T01:28:14.386Z,9.10
2022-11-07T01:30:42.935Z,9.00
2022-11-07T01:33:10.613Z,9.10
2022-11-07T01:35:37.686Z,9.10
2022-11-07T01:38:05.524Z,9.20
2022-11-07T01:40:52.347Z,9.20
2022-11-07T01:43:19.083Z,9.30
2022-11-07T01:45:45.792Z,9.40
2022-11-07T01:48:12.776Z,9.40
2022-11-07T01:50:41.702Z,9.40
2022-11-07T01:53:08.424Z,9.30
2022-11-07T01:55:35.909Z,9.20
2022-11-07T01:58:08.517Z,9.10
2022-11-07T02:00:36.953Z,9.00
2022-11-07T02:03:09.405Z,9.00
2022-11-07T02:05:46.893Z,8.90
2022-11-07T02:08:15.584Z,8.90
2022-11-07T02:10:43.809Z,9.10
2022-11-07T02:13:16.642Z,9.20
2022-11-07T02:15:43.746Z,9.30
2022-11-07T02:18:11.060Z,9.30
2022-11-07T02:20:37.943Z,9.30
2022-11-07T02:23:11.860Z,9.40
2022-11-07T02:25:38.975Z,9.50
2022-11-07T02:28:08.940Z,9.50
2022-11-07T02:30:35.986Z,9.50
2022-11-07T02:33:03.288Z,9.50
2022-11-07T02:35:45.956Z,9.50
2022-11-07T02:38:48.815Z,9.50
2022-11-07T02:41:21.297Z,9.40
2022-11-07T02:44:18.657Z,9.40
2022-11-07T02:46:45.980Z,9.30
2022-11-07T02:49:12.701Z,9.10
2022-11-07T02:51:39.484Z,9.00
2022-11-07T02:54:06.252Z,9.10
2022-11-07T02:56:33.009Z,9.00
2022-11-07T02:58:59.784Z,9.10
2022-11-07T03:01:26.603Z,9.10
2022-11-07T03:03:53.445Z,9.20
2022-11-07T03:06:23.297Z,9.20
2022-11-07T03:08:50.804Z,9.20
2022-11-07T03:11:20.759Z,9.20
2022-11-07T03:13:48.634Z,9.20
2022-11-07T03:16:16.696Z,9.20
2022-11-07T03:18:43.425Z,9.00
2022-11-07T03:21:10.312Z,8.90
2022-11-07T03:23:37.199Z,9.00
2022-11-07T03:26:04.692Z,9.00
2022-11-07T03:28:31.739Z,9.10
2022-11-07T03:31:03.167Z,8.90
2022-11-07T03:33:30.840Z,9.00
2022-11-07T03:35:57.547Z,9.10
2022-11-07T03:38:24.320Z,9.00
2022-11-07T03:40:51.098Z,8.90
2022-11-07T03:43:18.073Z,8.80
2022-11-07T03:45:44.812Z,8.80
2022-11-07T03:48:11.580Z,8.90
2022-11-07T03:50:38.270Z,8.90
2022-11-07T03:53:05.009Z,8.80
2022-11-07T03:55:31.767Z,8.60
2022-11-07T03:57:58.455Z,8.50
2022-11-07T04:00:25.223Z,8.50
2022-11-07T04:02:52.155Z,8.50
2022-11-07T04:05:19.012Z,8.40
2022-11-07T04:07:45.713Z,8.30
2022-11-07T04:10:12.482Z,8.20
2022-11-07T04:12:57.598Z,8.20
2022-11-07T04:15:42.891Z,8.20
2022-11-07T04:18:09.680Z,8.40
2022-11-07T04:20:36.385Z,8.30
2022-11-07T04:23:03.094Z,8.40
2022-11-07T04:25:48.244Z,8.40
2022-11-07T04:28:17.728Z,8.40
2022-11-07T04:30:44.444Z,8.20
2022-11-07T04:33:11.325Z,8.00
2022-11-07T04:35:38.126Z,8.00
2022-11-07T04:38:04.863Z,7.90
2022-11-07T04:40:31.563Z,7.80
2022-11-07T04:42:58.346Z,7.80
2022-11-07T04:45:25.268Z,7.70
2022-11-07T04:47:52.073Z,7.50
2022-11-07T04:50:20.410Z,7.40
2022-11-07T04:52:48.016Z,7.20
2022-11-07T04:55:24.280Z,7.10
2022-11-07T04:57:51.091Z,7.20
2022-11-07T05:00:19.212Z,7.00
2022-11-07T05:02:46.948Z,7.00
2022-11-07T05:05:13.808Z,6.90
2022-11-07T05:07:41.391Z,6.80
2022-11-07T05:10:14.679Z,6.80
2022-11-07T05:12:41.351Z,6.90
2022-11-07T05:15:08.446Z,6.90
2022-11-07T05:17:35.247Z,6.70
2022-11-07T05:20:01.946Z,6.70
2022-11-07T05:22:49.256Z,6.60
2022-11-07T05:25:19.165Z,6.60
2022-11-07T05:27:45.956Z,6.50
2022-11-07T05:30:13.099Z,6.70
2022-11-07T05:32:41.261Z,6.60
2022-11-07T05:35:08.297Z,6.60
2022-11-07T05:37:35.004Z,6.50
2022-11-07T05:40:01.707Z,6.50
2022-11-07T05:42:28.515Z,6.30
2022-11-07T05:44:55.279Z,6.40
2022-11-07T05:47:21.983Z,6.40
2022-11-07T05:49:48.698Z,6.40
2022-11-07T05:52:15.480Z,6.40
2022-11-07T05:54:42.188Z,6.60
2022-11-07T05:57:08.882Z,6.40
2022-11-07T05:59:35.596Z,6.30
2022-11-07T06:02:02.477Z,6.20
2022-11-07T06:04:29.309Z,6.20
2022-11-07T06:06:55.978Z,6.10
2022-11-07T06:09:22.669Z,6.20
2022-11-07T06:11:49.463Z,6.10
2022-11-07T06:14:16.659Z,6.10
2022-11-07T06:16:43.339Z,6.10
2022-11-07T06:19:10.063Z,6.10
2022-11-07T06:21:36.754Z,6.10
2022-11-07T06:24:03.667Z,6.10
2022-11-07T06:26:30.391Z,6.10
2022-11-07T06:28:57.098Z,6.20
2022-11-07T06:31:23.874Z,6.30
2022-11-07T06:33:51.329Z,6.50
2022-11-07T06:36:18.688Z,6.60
2022-11-07T06:38:45.465Z,6.80
2022-11-07T06:41:13.962Z,7.10
2022-11-07T06:43:41.094Z,7.10
2022-11-07T06:46:11.491Z,7.20
2022-11-07T06:48:38.860Z,7.30
2022-11-07T06:51:07.063Z,7.40
2022-11-07T06:53:34.098Z,7.50
2022-11-07T06:56:02.016Z,7.60
2022-11-07T06:58:28.812Z,7.70
2022-11-07T07:01:03.990Z,7.80
2022-11-07T07:03:31.097Z,7.90
2022-11-07T07:06:05.732Z,7.70
2022-11-07T07:08:33.511Z,7.70
2022-11-07T07:11:04.476Z,7.80
2022-11-07T07:13:31.350Z,8.00
2022-11-07T07:15:59.093Z,8.10
2022-11-07T07:18:27.233Z,8.10
2022-11-07T07:21:02.599Z,8.30
2022-11-07T07:23:29.428Z,8.30
2022-11-07T07:25:56.208Z,8.30
2022-11-07T07:28:22.971Z,8.30
2022-11-07T07:30:52.007Z,8.30
2022-11-07T07:33:20.028Z,8.20
2022-11-07T07:35:46.766Z,8.10
2022-11-07T07:38:13.543Z,8.20
2022-11-07T07:40:40.253Z,8.30
2022-11-07T07:43:07.001Z,8.20
2022-11-07T07:45:33.755Z,8.40
2022-11-07T07:48:03.611Z,8.70
2022-11-07T07:50:30.613Z,8.70
2022-11-07T07:52:58.050Z,8.90
2022-11-07T07:55:25.206Z,9.10
2022-11-07T07:57:51.937Z,9.10
2022-11-07T08:00:18.899Z,9.20
2022-11-07T08:02:45.616Z,9.20
2022-11-07T08:05:14.388Z,9.30
2022-11-07T08:07:47.735Z,9.30
2022-11-07T08:10:42.544Z,9.50
2022-11-07T08:13:09.963Z,9.50
2022-11-07T08:15:36.764Z,9.70
2022-11-07T08:18:04.696Z,9.60
2022-11-07T08:20:31.900Z,9.80
2022-11-07T08:23:03.752Z,10.00
2022-11-07T08:25:30.693Z,10.00
2022-11-07T08:27:57.410Z,10.10
2022-11-07T08:30:24.483Z,10.10
2022-11-07T08:32:51.172Z,10.40
2022-11-07T08:35:18.001Z,10.40
2022-11-07T08:37:44.733Z,10.40
2022-11-07T08:40:12.064Z,10.60
2022-11-07T08:42:39.123Z,10.70
2022-11-07T08:45:06.508Z,10.60
2022-11-07T08:47:33.211Z,10.70
2022-11-07T08:50:00.033Z,10.70
2022-11-07T08:52:26.826Z,10.80
2022-11-07T08:54:53.496Z,10.80
2022-11-07T08:57:20.378Z,10.90
2022-11-07T08:59:47.105Z,11.10
2022-11-07T09:05:00.704Z,11.30
2022-11-07T09:07:27.444Z,11.40
2022-11-07T09:09:54.283Z,11.40
2022-11-07T09:12:20.959Z,11.50
2022-11-07T09:14:47.680Z,11.50
2022-11-07T09:17:14.341Z,11.60
2022-11-07T09:19:41.043Z,11.70
2022-11-07T09:22:07.745Z,11.80
2022-11-07T09:24:34.517Z,11.80
2022-11-07T09:27:01.227Z,11.80
2022-11-07T09:29:28.001Z,11.80
2022-11-07T09:31:54.796Z,12.00
2022-11-07T09:34:21.625Z,12.00
2022-11-07T09:36:48.341Z,12.10
2022-11-07T09:39:15.051Z,12.20
2022-11-07T09:42:09.776Z,12.20
2022-11-07T09:44:42.866Z,12.20
2022-11-07T09:47:17.072Z,12.30
2022-11-07T09:49:53.045Z,12.40
2022-11-07T09:52:40.989Z,12.60
2022-11-07T09:55:07.663Z,12.70
2022-11-07T09:57:35.876Z,12.80
2022-11-07T10:00:11.085Z,15.50
2022-11-07T10:02:44.956Z,18.40
2022-11-07T10:05:34.705Z,19.30
2022-11-07T10:08:16.631Z,18.80
2022-11-07T10:10:56.429Z,17.50
2022-11-07T10:13:56.743Z,15.30
2022-11-07T10:16:35.351Z,14.90
2022-11-07T10:19:28.775Z,14.70
2022-11-07T10:22:14.150Z,14.50
2022-11-07T10:24:43.975Z,14.60
2022-11-07T10:27:11.826Z,14.40
2022-11-07T10:29:52.335Z,14.40
2022-11-07T10:32:36.087Z,14.60
2022-11-07T10:35:26.090Z,14.90
2022-11-07T10:37:58.441Z,14.80
2022-11-07T10:40:33.416Z,14.90
2022-11-07T10:43:03.166Z,15.00
2022-11-07T10:45:30.924Z,15.10
2022-11-07T10:48:03.262Z,15.10
2022-11-07T10:50:30.629Z,14.60
2022-11-07T10:53:05.458Z,14.60
2022-11-07T10:55:44.067Z,14.80
2022-11-07T10:58:18.989Z,15.00
2022-11-07T11:01:02.345Z,14.80
2022-11-07T11:03:44.175Z,14.80
2022-11-07T11:06:26.977Z,15.00
2022-11-07T11:08:53.784Z,15.10
2022-11-07T11:11:32.736Z,15.10
2022-11-07T11:14:13.145Z,14.80
2022-11-07T11:16:43.605Z,14.70
2022-11-07T11:19:24.223Z,14.60
2022-11-07T11:21:52.523Z,14.60
2022-11-07T11:24:25.541Z,14.60
2022-11-07T11:26:53.683Z,14.70
2022-11-07T11:29:43.430Z,14.90
2022-11-07T11:32:17.763Z,14.80
2022-11-07T11:35:10.382Z,14.70
2022-11-07T11:37:42.646Z,14.60
2022-11-07T11:40:19.397Z,14.50
2022-11-07T11:43:22.584Z,14.40
2022-11-07T11:46:08.067Z,14.40
2022-11-07T11:48:56.679Z,14.50
2022-11-07T11:51:40.424Z,14.40
2022-11-07T11:54:12.373Z,14.30
2022-11-07T11:56:45.671Z,14.20
2022-11-07T11:59:38.535Z,14.30
2022-11-07T12:02:39.742Z,14.10
2022-11-07T12:05:21.454Z,14.10
2022-11-07T12:08:19.066Z,14.10
2022-11-07T12:11:07.375Z,14.10
2022-11-07T12:13:53.334Z,14.30
2022-11-07T12:16:30.366Z,14.30
2022-11-07T12:19:17.660Z,14.40
2022-11-07T12:21:59.685Z,14.50
2022-11-07T12:24:45.432Z,14.70
2022-11-07T12:27:26.785Z,14.70
2022-11-07T12:30:20.126Z,14.60
2022-11-07T12:33:13.297Z,14.60
2022-11-07T12:35:57.100Z,14.50
2022-11-07T12:38:51.704Z,14.40
2022-11-07T12:41:28.529Z,14.20
2022-11-07T12:44:00.951Z,14.10
2022-11-07T12:46:48.560Z,14.00
2022-11-07T12:49:18.209Z,13.90
2022-11-07T12:52:03.777Z,13.90
2022-11-07T12:54:40.015Z,14.00
2022-11-07T12:57:20.081Z,14.00
2022-11-07T13:00:06.941Z,14.00
2022-11-07T13:02:52.467Z,14.00
2022-11-07T13:05:55.620Z,13.90
2022-11-07T13:08:46.669Z,13.80
2022-11-07T13:11:32.236Z,13.90
2022-11-07T13:14:04.856Z,13.90
2022-11-07T13:16:34.987Z,13.90
2022-11-07T13:19:32.255Z,13.90
2022-11-07T13:22:02.333Z,14.00
2022-11-07T13:24:30.157Z,14.00
2022-11-07T13:26:58.439Z,13.80
2022-11-07T13:29:36.997Z,13.70
2022-11-07T13:32:15.213Z,13.70
2022-11-07T13:34:49.272Z,13.60
2022-11-07T13:37:26.305Z,13.60
2022-11-07T13:40:15.452Z,13.70
2022-11-07T13:42:43.556Z,13.70
2022-11-07T13:45:27.866Z,13.60
2022-11-07T13:47:59.184Z,13.50
2022-11-07T13:50:39.203Z,13.40
2022-11-07T13:53:17.520Z,13.50
2022-11-07T13:55:51.065Z,13.40
2022-11-07T13:58:19.731Z,13.30
2022-11-07T14:00:46.515Z,13.20
2022-11-07T14:03:26.389Z,13.20
2022-11-07T14:05:54.461Z,13.20
2022-11-07T14:08:32.421Z,13.10
2022-11-07T14:11:02.152Z,13.00
2022-11-07T14:13:38.229Z,13.00
2022-11-07T14:16:27.073Z,13.00
2022-11-07T14:19:01.079Z,12.90
2022-11-07T14:21:33.429Z,13.00
2022-11-07T14:24:01.324Z,13.00
2022-11-07T14:26:38.840Z,13.00
2022-11-07T14:29:08.215Z,12.80
2022-11-07T14:31:37.700Z,12.60
2022-11-07T14:34:20.360Z,12.50
2022-11-07T14:36:52.360Z,12.60
2022-11-07T14:39:20.775Z,12.50
2022-11-07T14:41:48.190Z,12.50
2022-11-07T14:44:28.508Z,12.40
2022-11-07T14:47:04.176Z,12.30
2022-11-07T14:49:43.088Z,12.30
2022-11-07T14:52:33.131Z,12.20
2022-11-07T14:55:20.758Z,12.20
2022-11-07T14:57:48.194Z,12.10
2022-11-07T15:00:17.742Z,11.90
2022-11-07T15:02:47.963Z,12.00
2022-11-07T15:05:44.476Z,11.90
2022-11-07T15:08:30.768Z,11.70
2022-11-07T15:11:15.766Z,11.70
2022-11-07T15:13:42.739Z,11.60
2022-11-07T15:16:17.155Z,11.40
2022-11-07T15:18:46.995Z,11.20
2022-11-07T15:21:35.693Z,11.10
2022-11-07T15:24:33.922Z,11.00
2022-11-07T15:27:15.321Z,10.80
2022-11-07T15:29:57.254Z,10.70
2022-11-07T15:32:41.011Z,10.60
2022-11-07T15:38:05.951Z,10.30
2022-11-07T15:40:33.167Z,10.30
2022-11-07T15:42:59.884Z,10.10
2022-11-07T15:45:26.708Z,10.00
2022-11-07T15:47:53.398Z,9.90
2022-11-07T15:50:24.320Z,9.80
2022-11-07T15:52:52.880Z,9.70
2022-11-07T15:55:21.838Z,9.70
2022-11-07T15:57:51.679Z,9.50
2022-11-07T16:00:21.454Z,9.50
2022-11-07T16:02:48.349Z,9.50
2022-11-07T16:05:15.506Z,9.40
2022-11-07T16:07:43.469Z,9.30
2022-11-07T16:10:21.578Z,9.20
2022-11-07T16:12:49.722Z,9.10
2022-11-07T16:15:19.625Z,9.10
2022-11-07T16:17:46.943Z,9.00
2022-11-07T16:20:22.583Z,9.00
2022-11-07T16:22:50.496Z,9.00
2022-11-07T16:25:22.407Z,8.80
2022-11-07T16:27:55.263Z,8.80
2022-11-07T16:30:22.645Z,8.70
2022-11-07T16:32:49.348Z,8.60
2022-11-07T16:35:16.359Z,8.50
2022-11-07T16:37:43.067Z,8.40
2022-11-07T16:40:16.125Z,8.50
2022-11-07T16:42:42.807Z,8.40
2022-11-07T16:45:16.273Z,8.30
2022-11-07T16:47:44.048Z,8.20
2022-11-07T16:50:15.001Z,8.10
2022-11-07T16:52:42.009Z,8.00
2022-11-07T16:55:15.044Z,8.00
2022-11-07T16:57:41.879Z,7.90
2022-11-07T17:00:20.405Z,7.90
2022-11-07T17:02:47.362Z,8.00
2022-11-07T17:05:14.280Z,8.00
2022-11-07T17:07:41.358Z,8.10
2022-11-07T17:10:13.331Z,8.00
2022-11-07T17:12:40.015Z,8.10
2022-11-07T17:15:07.285Z,8.20
2022-11-07T17:17:34.053Z,8.20
2022-11-07T17:20:00.821Z,8.20
2022-11-07T17:22:27.608Z,8.30
2022-11-07T17:24:54.933Z,8.20
2022-11-07T17:27:24.769Z,8.30
2022-11-07T17:29:52.490Z,8.40
2022-11-07T17:32:20.098Z,8.30
2022-11-07T17:34:59.254Z,8.40
2022-11-07T17:37:35.400Z,8.40
2022-11-07T17:40:02.444Z,8.40
2022-11-07T17:42:32.554Z,8.50
2022-11-07T17:45:02.325Z,8.60
2022-11-07T17:47:30.970Z,8.70
2022-11-07T17:49:58.488Z,8.70
2022-11-07T17:52:25.331Z,8.60
2022-11-07T17:54:52.675Z,8.60
2022-11-07T17:57:19.384Z,8.60
2022-11-07T17:59:46.233Z,8.50
2022-11-07T18:02:18.572Z,8.60
2022-11-07T18:04:45.942Z,8.60
2022-11-07T18:07:12.853Z,8.70
2022-11-07T18:09:43.134Z,8.50
2022-11-07T18:12:11.091Z,8.30
2022-11-07T18:14:38.359Z,8.30
2022-11-07T18:17:05.896Z,8.20
2022-11-07T18:19:33.016Z,8.30
2022-11-07T18:21:59.760Z,8.20
2022-11-07T18:24:26.523Z,8.30
2022-11-07T18:26:53.547Z,8.30
2022-11-07T18:29:20.414Z,8.10
2022-11-07T18:31:47.413Z,8.00
2022-11-07T18:34:14.522Z,8.00
2022-11-07T18:36:43.046Z,8.00
2022-11-07T18:39:14.985Z,8.10
2022-11-07T18:41:42.365Z,8.00
2022-11-07T18:44:10.680Z,8.00
2022-11-07T18:46:38.158Z,8.00
2022-11-07T18:49:05.882Z,8.10
2022-11-07T18:51:33.672Z,7.90
2022-11-07T18:54:02.744Z,7.90
2022-11-07T18:56:30.071Z,7.80
2022-11-07T18:58:57.219Z,7.70
2022-11-07T19:01:28.126Z,7.80
2022-11-07T19:03:57.323Z,7.80
2022-11-07T19:06:25.854Z,7.90
2022-11-07T19:08:52.617Z,7.90
2022-11-07T19:11:25.352Z,8.00
2022-11-07T19:13:53.457Z,7.90
2022-11-07T19:16:22.154Z,7.80
2022-11-07T19:18:50.063Z,7.80
2022-11-07T19:21:20.550Z,7.60
2022-11-07T19:23:48.192Z,7.60
2022-11-07T19:26:16.214Z,7.60
2022-11-07T19:28:42.968Z,7.50
2022-11-07T19:31:12.804Z,7.50
2022-11-07T19:33:43.301Z,7.60
2022-11-07T19:36:19.854Z,7.50
2022-11-07T19:38:47.492Z,7.60
2022-11-07T19:41:15.865Z,7.50
2022-11-07T19:43:43.762Z,7.50
2022-11-07T19:46:18.057Z,7.50
2022-11-07T19:48:44.918Z,7.50
2022-11-07T19:51:20.954Z,7.40
2022-11-07T19:53:55.295Z,7.30
2022-11-07T19:56:23.666Z,7.20
2022-11-07T19:58:50.860Z,7.10
2022-11-07T20:01:20.579Z,7.10
2022-11-07T20:03:49.720Z,7.00
2022-11-07T20:06:18.978Z,6.80
2022-11-07T20:08:46.328Z,6.90
2022-11-07T20:11:18.547Z,6.90
2022-11-07T20:13:45.842Z,6.70
2022-11-07T20:16:12.897Z,6.60
2022-11-07T20:18:40.671Z,6.60
2022-11-07T20:21:12.825Z,6.60
2022-11-07T20:23:40.964Z,6.60
2022-11-07T20:26:10.687Z,6.50
2022-11-07T20:28:37.746Z,6.50
2022-11-07T20:31:12.422Z,6.40
2022-11-07T20:33:39.468Z,6.40
2022-11-07T20:36:09.241Z,6.40
2022-11-07T20:38:36.572Z,6.40
2022-11-07T20:41:04.369Z,6.20
2022-11-07T20:43:32.324Z,6.10
2022-11-07T20:46:13.416Z,6.20
2022-11-07T20:48:40.656Z,6.30
2022-11-07T20:51:12.808Z,6.40
2022-11-07T20:53:41.082Z,6.40
2022-11-07T20:56:10.393Z,6.50
2022-11-07T20:58:39.330Z,6.40
2022-11-07T21:01:07.997Z,6.40
2022-11-07T21:03:35.151Z,6.20
2022-11-07T21:06:01.894Z,6.20
2022-11-07T21:08:30.797Z,6.20
2022-11-07T21:11:01.433Z,6.20
2022-11-07T21:13:28.152Z,6.20
2022-11-07T21:15:54.926Z,6.20
2022-11-07T21:18:21.655Z,6.20
2022-11-07T21:20:48.387Z,6.30
2022-11-07T21:23:15.955Z,6.30
2022-11-07T21:25:45.728Z,6.20
2022-11-07T21:28:17.402Z,6.30
2022-11-07T21:31:05.182Z,6.20
2022-11-07T21:33:32.622Z,6.20
2022-11-07T21:35:59.456Z,6.20
2022-11-07T21:38:26.370Z,6.20
2022-11-07T21:40:53.497Z,6.20
2022-11-07T21:43:20.486Z,6.20
2022-11-07T21:45:47.312Z,6.10
2022-11-07T21:48:13.968Z,6.00
2022-11-07T21:50:45.468Z,5.90
2022-11-07T21:53:12.530Z,6.00
2022-11-07T21:55:39.283Z,5.80
2022-11-07T21:58:06.004Z,5.70
2022-11-07T22:00:36.524Z,5.70
2022-11-07T22:03:04.254Z,5.70
2022-11-07T22:05:31.150Z,5.70
2022-11-07T22:07:57.963Z,5.60
2022-11-07T22:10:24.695Z,5.50
2022-11-07T22:12:52.425Z,5.60
2022-11-07T22:15:19.168Z,5.60
2022-11-07T22:17:45.838Z,5.60
2022-11-07T22:20:12.957Z,5.70
2022-11-07T22:22:39.675Z,5.60
2022-11-07T22:25:06.873Z,5.50
2022-11-07T22:27:33.781Z,5.60
2022-11-07T22:30:00.556Z,5.80
2022-11-07T22:32:27.235Z,5.80
2022-11-07T22:34:53.967Z,5.90
2022-11-07T22:37:20.696Z,5.80
2022-11-07T22:39:47.405Z,5.70
2022-11-07T22:42:15.016Z,5.60
2022-11-07T22:44:44.077Z,5.70
2022-11-07T22:47:10.899Z,5.60
2022-11-07T22:49:37.592Z,5.60
2022-11-07T22:52:04.523Z,5.60
2022-11-07T22:54:31.293Z,5.50
2022-11-07T22:56:58.001Z,5.50
2022-11-07T22:59:24.803Z,5.50
2022-11-07T23:01:51.806Z,5.40
2022-11-07T23:04:18.671Z,5.50
2022-11-07T23:06:45.466Z,5.50
2022-11-07T23:09:14.222Z,5.50
2022-11-07T23:11:46.446Z,5.50
2022-11-07T23:14:15.675Z,5.40
2022-11-07T23:16:51.509Z,5.40
2022-11-07T23:19:20.941Z,5.40
2022-11-07T23:21:48.845Z,5.40
2022-11-07T23:24:15.588Z,5.50
2022-11-07T23:26:42.420Z,5.50
2022-11-07T23:29:13.207Z,5.50
2022-11-07T23:31:41.211Z,5.50
2022-11-07T23:34:08.022Z,5.40
2022-11-07T23:36:34.913Z,5.40
2022-11-07T23:39:07.082Z,5.30
2022-11-07T23:41:34.231Z,5.30
2022-11-07T23:44:01.060Z,5.30
2022-11-07T23:46:46.215Z,5.20
2022-11-07T23:49:31.488Z,5.10
2022-11-07T23:51:58.327Z,5.00
2022-11-07T23:54:43.736Z,5.00
2022-11-07T23:57:10.602Z,4.90
2022-11-07T23:59:55.797Z,4.90
